sensor_id;sensor_type;location;lat;lon;timestamp;P1;durP1;ratioP1;P2;durP2;ratioP2
8757;SDS011;4415;42.152;24.744;2023-11-19T00:01:55;3.20;;;2.13;;
8757;SDS011;4415;42.152;24.744;2023-11-19T00:04:21;1.73;;;1.40;;
8757;SDS011;4415;42.152;24.744;2023-11-19T00:06:47;1.30;;;1.10;;
8757;SDS011;4415;42.152;24.744;2023-11-19T00:09:13;0.90;;;0.90;;
8757;SDS011;4415;42.152;24.744;2023-11-19T00:11:38;7.30;;;4.90;;
8757;SDS011;4415;42.152;24.744;2023-11-19T00:14:03;6.27;;;3.30;;
8757;SDS011;4415;42.152;24.744;2023-11-19T00:16:29;4.33;;;2.30;;
8757;SDS011;4415;42.152;24.744;2023-11-19T00:18:57;112.07;;;49.07;;
8757;SDS011;4415;42.152;24.744;2023-11-19T00:21:22;110.77;;;44.93;;
8757;SDS011;4415;42.152;24.744;2023-11-19T00:23:47;0.80;;;0.73;;
8757;SDS011;4415;42.152;24.744;2023-11-19T00:26:13;1.03;;;0.93;;
8757;SDS011;4415;42.152;24.744;2023-11-19T00:28:39;2.90;;;1.97;;
8757;SDS011;4415;42.152;24.744;2023-11-19T00:31:04;20.20;;;9.30;;
8757;SDS011;4415;42.152;24.744;2023-11-19T00:33:30;95.93;;;52.77;;
8757;SDS011;4415;42.152;24.744;2023-11-19T00:35:56;19.23;;;17.97;;
8757;SDS011;4415;42.152;24.744;2023-11-19T00:38:21;4.20;;;3.37;;
8757;SDS011;4415;42.152;24.744;2023-11-19T00:40:46;20.87;;;19.20;;
8757;SDS011;4415;42.152;24.744;2023-11-19T00:43:12;75.23;;;49.40;;
8757;SDS011;4415;42.152;24.744;2023-11-19T00:45:38;61.87;;;38.10;;
8757;SDS011;4415;42.152;24.744;2023-11-19T00:48:03;43.17;;;38.87;;
8757;SDS011;4415;42.152;24.744;2023-11-19T00:50:29;4.00;;;3.77;;
8757;SDS011;4415;42.152;24.744;2023-11-19T00:52:56;4.00;;;3.80;;
8757;SDS011;4415;42.152;24.744;2023-11-19T00:55:21;12.50;;;11.77;;
8757;SDS011;4415;42.152;24.744;2023-11-19T00:57:46;83.63;;;59.00;;
8757;SDS011;4415;42.152;24.744;2023-11-19T01:00:12;36.87;;;30.33;;
8757;SDS011;4415;42.152;24.744;2023-11-19T01:02:43;45.33;;;40.47;;
8757;SDS011;4415;42.152;24.744;2023-11-19T01:05:10;44.77;;;40.30;;
8757;SDS011;4415;42.152;24.744;2023-11-19T01:07:39;14.40;;;13.40;;
8757;SDS011;4415;42.152;24.744;2023-11-19T01:10:04;37.60;;;33.90;;
8757;SDS011;4415;42.152;24.744;2023-11-19T01:12:31;34.07;;;31.07;;
8757;SDS011;4415;42.152;24.744;2023-11-19T01:14:56;8.90;;;4.30;;
8757;SDS011;4415;42.152;24.744;2023-11-19T01:17:23;9.13;;;4.23;;
8757;SDS011;4415;42.152;24.744;2023-11-19T01:19:48;26.53;;;23.80;;
8757;SDS011;4415;42.152;24.744;2023-11-19T01:22:15;23.10;;;21.43;;
8757;SDS011;4415;42.152;24.744;2023-11-19T01:24:40;20.50;;;18.90;;
8757;SDS011;4415;42.152;24.744;2023-11-19T01:27:06;3.83;;;3.53;;
8757;SDS011;4415;42.152;24.744;2023-11-19T01:29:31;5.13;;;4.03;;
8757;SDS011;4415;42.152;24.744;2023-11-19T01:31:56;9.30;;;6.30;;
8757;SDS011;4415;42.152;24.744;2023-11-19T01:34:22;6.53;;;4.57;;
8757;SDS011;4415;42.152;24.744;2023-11-19T01:36:47;6.10;;;4.47;;
8757;SDS011;4415;42.152;24.744;2023-11-19T01:39:13;3.93;;;3.67;;
8757;SDS011;4415;42.152;24.744;2023-11-19T01:41:41;3.60;;;3.33;;
8757;SDS011;4415;42.152;24.744;2023-11-19T01:44:07;7.07;;;4.73;;
8757;SDS011;4415;42.152;24.744;2023-11-19T01:46:32;11.37;;;6.03;;
8757;SDS011;4415;42.152;24.744;2023-11-19T01:48:59;11.80;;;5.90;;
8757;SDS011;4415;42.152;24.744;2023-11-19T01:51:25;7.60;;;4.47;;
8757;SDS011;4415;42.152;24.744;2023-11-19T01:53:52;5.83;;;3.77;;
8757;SDS011;4415;42.152;24.744;2023-11-19T01:56:18;3.97;;;3.57;;
8757;SDS011;4415;42.152;24.744;2023-11-19T01:58:44;4.83;;;4.43;;
8757;SDS011;4415;42.152;24.744;2023-11-19T02:01:10;7.87;;;5.70;;
8757;SDS011;4415;42.152;24.744;2023-11-19T02:03:37;8.27;;;5.73;;
8757;SDS011;4415;42.152;24.744;2023-11-19T02:06:03;7.53;;;5.90;;
8757;SDS011;4415;42.152;24.744;2023-11-19T02:08:29;6.13;;;5.57;;
8757;SDS011;4415;42.152;24.744;2023-11-19T02:10:55;47.33;;;43.00;;
8757;SDS011;4415;42.152;24.744;2023-11-19T02:13:23;7.80;;;7.37;;
8757;SDS011;4415;42.152;24.744;2023-11-19T02:15:50;67.13;;;52.37;;
8757;SDS011;4415;42.152;24.744;2023-11-19T02:18:16;15.07;;;13.67;;
8757;SDS011;4415;42.152;24.744;2023-11-19T02:20:49;20.43;;;18.67;;
8757;SDS011;4415;42.152;24.744;2023-11-19T02:23:15;9.83;;;5.80;;
8757;SDS011;4415;42.152;24.744;2023-11-19T02:25:42;9.20;;;4.80;;
8757;SDS011;4415;42.152;24.744;2023-11-19T02:28:10;6.50;;;4.57;;
8757;SDS011;4415;42.152;24.744;2023-11-19T02:30:37;20.73;;;19.33;;
8757;SDS011;4415;42.152;24.744;2023-11-19T02:33:02;22.93;;;21.57;;
8757;SDS011;4415;42.152;24.744;2023-11-19T02:35:30;5.40;;;5.10;;
8757;SDS011;4415;42.152;24.744;2023-11-19T02:37:57;4.80;;;4.20;;
8757;SDS011;4415;42.152;24.744;2023-11-19T02:40:24;6.70;;;5.43;;
8757;SDS011;4415;42.152;24.744;2023-11-19T02:42:50;8.93;;;7.80;;
8757;SDS011;4415;42.152;24.744;2023-11-19T02:45:16;3.83;;;2.70;;
8757;SDS011;4415;42.152;24.744;2023-11-19T02:47:42;46.37;;;42.17;;
8757;SDS011;4415;42.152;24.744;2023-11-19T02:50:09;4.00;;;3.77;;
8757;SDS011;4415;42.152;24.744;2023-11-19T02:52:42;6.07;;;5.80;;
8757;SDS011;4415;42.152;24.744;2023-11-19T02:55:11;5.83;;;5.53;;
8757;SDS011;4415;42.152;24.744;2023-11-19T02:57:40;11.20;;;10.60;;
8757;SDS011;4415;42.152;24.744;2023-11-19T03:00:16;8.70;;;8.13;;
8757;SDS011;4415;42.152;24.744;2023-11-19T03:02:48;8.93;;;8.53;;
8757;SDS011;4415;42.152;24.744;2023-11-19T03:05:23;7.20;;;6.77;;
8757;SDS011;4415;42.152;24.744;2023-11-19T03:07:49;5.07;;;4.77;;
8757;SDS011;4415;42.152;24.744;2023-11-19T03:10:14;4.47;;;3.63;;
8757;SDS011;4415;42.152;24.744;2023-11-19T03:12:40;8.83;;;4.73;;
8757;SDS011;4415;42.152;24.744;2023-11-19T03:15:06;8.80;;;4.23;;
8757;SDS011;4415;42.152;24.744;2023-11-19T03:17:32;6.23;;;3.30;;
8757;SDS011;4415;42.152;24.744;2023-11-19T03:19:59;4.33;;;2.33;;
8757;SDS011;4415;42.152;24.744;2023-11-19T03:22:26;1.77;;;1.67;;
8757;SDS011;4415;42.152;24.744;2023-11-19T03:24:51;3.83;;;3.03;;
8757;SDS011;4415;42.152;24.744;2023-11-19T03:27:17;6.37;;;3.77;;
8757;SDS011;4415;42.152;24.744;2023-11-19T03:29:42;6.30;;;4.60;;
8757;SDS011;4415;42.152;24.744;2023-11-19T03:32:08;5.20;;;4.17;;
8757;SDS011;4415;42.152;24.744;2023-11-19T03:34:33;4.33;;;4.00;;
8757;SDS011;4415;42.152;24.744;2023-11-19T03:36:59;3.93;;;3.63;;
8757;SDS011;4415;42.152;24.744;2023-11-19T03:39:24;11.70;;;10.90;;
8757;SDS011;4415;42.152;24.744;2023-11-19T03:41:50;4.97;;;3.30;;
8757;SDS011;4415;42.152;24.744;2023-11-19T03:44:15;11.67;;;5.60;;
8757;SDS011;4415;42.152;24.744;2023-11-19T03:46:41;9.33;;;4.40;;
8757;SDS011;4415;42.152;24.744;2023-11-19T03:49:07;5.53;;;4.27;;
8757;SDS011;4415;42.152;24.744;2023-11-19T03:51:32;2.27;;;2.07;;
8757;SDS011;4415;42.152;24.744;2023-11-19T03:53:59;3.27;;;3.00;;
8757;SDS011;4415;42.152;24.744;2023-11-19T03:56:24;34.50;;;31.40;;
8757;SDS011;4415;42.152;24.744;2023-11-19T03:58:49;28.30;;;25.97;;
8757;SDS011;4415;42.152;24.744;2023-11-19T04:01:15;5.50;;;4.97;;
8757;SDS011;4415;42.152;24.744;2023-11-19T04:03:40;11.33;;;10.80;;
8757;SDS011;4415;42.152;24.744;2023-11-19T04:06:06;5.00;;;4.80;;
8757;SDS011;4415;42.152;24.744;2023-11-19T04:08:31;11.53;;;10.83;;
8757;SDS011;4415;42.152;24.744;2023-11-19T04:10:57;7.63;;;6.30;;
8757;SDS011;4415;42.152;24.744;2023-11-19T04:13:22;13.50;;;9.23;;
8757;SDS011;4415;42.152;24.744;2023-11-19T04:15:49;26.83;;;24.63;;
8757;SDS011;4415;42.152;24.744;2023-11-19T04:18:15;13.13;;;12.17;;
8757;SDS011;4415;42.152;24.744;2023-11-19T04:20:41;14.23;;;13.60;;
8757;SDS011;4415;42.152;24.744;2023-11-19T04:23:07;15.67;;;14.53;;
8757;SDS011;4415;42.152;24.744;2023-11-19T04:25:36;20.13;;;18.60;;
8757;SDS011;4415;42.152;24.744;2023-11-19T04:28:02;13.90;;;12.23;;
8757;SDS011;4415;42.152;24.744;2023-11-19T04:30:27;36.87;;;33.20;;
8757;SDS011;4415;42.152;24.744;2023-11-19T04:32:53;41.93;;;36.47;;
8757;SDS011;4415;42.152;24.744;2023-11-19T04:35:18;5.27;;;4.97;;
8757;SDS011;4415;42.152;24.744;2023-11-19T04:37:44;6.70;;;6.33;;
8757;SDS011;4415;42.152;24.744;2023-11-19T04:40:09;7.13;;;6.40;;
8757;SDS011;4415;42.152;24.744;2023-11-19T04:42:36;11.63;;;7.43;;
8757;SDS011;4415;42.152;24.744;2023-11-19T04:45:04;12.20;;;8.63;;
8757;SDS011;4415;42.152;24.744;2023-11-19T04:47:31;11.83;;;8.27;;
8757;SDS011;4415;42.152;24.744;2023-11-19T04:49:57;10.53;;;8.40;;
8757;SDS011;4415;42.152;24.744;2023-11-19T04:52:23;6.23;;;5.77;;
8757;SDS011;4415;42.152;24.744;2023-11-19T04:54:48;6.90;;;6.33;;
8757;SDS011;4415;42.152;24.744;2023-11-19T04:57:13;8.60;;;7.27;;
8757;SDS011;4415;42.152;24.744;2023-11-19T04:59:39;11.10;;;7.77;;
8757;SDS011;4415;42.152;24.744;2023-11-19T05:02:05;8.07;;;7.37;;
8757;SDS011;4415;42.152;24.744;2023-11-19T05:04:31;10.30;;;9.67;;
8757;SDS011;4415;42.152;24.744;2023-11-19T05:06:56;8.47;;;8.07;;
8757;SDS011;4415;42.152;24.744;2023-11-19T05:09:22;5.30;;;5.10;;
8757;SDS011;4415;42.152;24.744;2023-11-19T05:11:47;8.77;;;8.00;;
8757;SDS011;4415;42.152;24.744;2023-11-19T05:14:13;45.63;;;40.77;;
8757;SDS011;4415;42.152;24.744;2023-11-19T05:16:39;19.43;;;17.60;;
8757;SDS011;4415;42.152;24.744;2023-11-19T05:19:05;12.60;;;11.43;;
8757;SDS011;4415;42.152;24.744;2023-11-19T05:21:31;20.80;;;19.47;;
8757;SDS011;4415;42.152;24.744;2023-11-19T05:23:56;34.40;;;31.60;;
8757;SDS011;4415;42.152;24.744;2023-11-19T05:26:23;53.20;;;46.77;;
8757;SDS011;4415;42.152;24.744;2023-11-19T05:28:49;54.53;;;44.97;;
8757;SDS011;4415;42.152;24.744;2023-11-19T05:31:15;48.57;;;43.17;;
8757;SDS011;4415;42.152;24.744;2023-11-19T05:33:42;25.30;;;23.40;;
8757;SDS011;4415;42.152;24.744;2023-11-19T05:36:08;36.53;;;33.40;;
8757;SDS011;4415;42.152;24.744;2023-11-19T05:38:34;45.40;;;40.70;;
8757;SDS011;4415;42.152;24.744;2023-11-19T05:41:00;43.47;;;39.07;;
8757;SDS011;4415;42.152;24.744;2023-11-19T05:43:26;101.20;;;64.83;;
8757;SDS011;4415;42.152;24.744;2023-11-19T05:45:51;92.97;;;57.87;;
8757;SDS011;4415;42.152;24.744;2023-11-19T05:48:16;62.37;;;47.63;;
8757;SDS011;4415;42.152;24.744;2023-11-19T05:50:42;71.77;;;52.80;;
8757;SDS011;4415;42.152;24.744;2023-11-19T05:53:08;15.40;;;14.40;;
8757;SDS011;4415;42.152;24.744;2023-11-19T05:55:38;19.53;;;18.40;;
8757;SDS011;4415;42.152;24.744;2023-11-19T05:58:11;23.67;;;21.90;;
8757;SDS011;4415;42.152;24.744;2023-11-19T06:00:39;43.40;;;36.87;;
8757;SDS011;4415;42.152;24.744;2023-11-19T06:03:05;88.33;;;53.97;;
8757;SDS011;4415;42.152;24.744;2023-11-19T06:05:32;130.23;;;64.07;;
8757;SDS011;4415;42.152;24.744;2023-11-19T06:07:58;147.60;;;68.93;;
8757;SDS011;4415;42.152;24.744;2023-11-19T06:10:23;68.77;;;54.57;;
8757;SDS011;4415;42.152;24.744;2023-11-19T06:12:55;68.93;;;59.10;;
8757;SDS011;4415;42.152;24.744;2023-11-19T06:15:24;100.10;;;68.87;;
8757;SDS011;4415;42.152;24.744;2023-11-19T06:17:50;80.97;;;64.83;;
8757;SDS011;4415;42.152;24.744;2023-11-19T06:20:16;148.23;;;90.53;;
8757;SDS011;4415;42.152;24.744;2023-11-19T06:22:42;81.33;;;70.00;;
8757;SDS011;4415;42.152;24.744;2023-11-19T06:25:09;74.00;;;66.10;;
8757;SDS011;4415;42.152;24.744;2023-11-19T06:27:34;101.60;;;86.20;;
8757;SDS011;4415;42.152;24.744;2023-11-19T06:30:00;151.47;;;104.63;;
8757;SDS011;4415;42.152;24.744;2023-11-19T06:32:26;122.53;;;103.63;;
8757;SDS011;4415;42.152;24.744;2023-11-19T06:34:51;163.17;;;117.23;;
8757;SDS011;4415;42.152;24.744;2023-11-19T06:37:17;188.83;;;129.13;;
8757;SDS011;4415;42.152;24.744;2023-11-19T06:39:42;210.97;;;136.63;;
8757;SDS011;4415;42.152;24.744;2023-11-19T06:42:07;154.03;;;116.33;;
8757;SDS011;4415;42.152;24.744;2023-11-19T06:44:33;161.43;;;116.23;;
8757;SDS011;4415;42.152;24.744;2023-11-19T06:46:59;194.53;;;124.23;;
8757;SDS011;4415;42.152;24.744;2023-11-19T06:49:24;177.00;;;121.83;;
8757;SDS011;4415;42.152;24.744;2023-11-19T06:51:50;208.80;;;124.33;;
8757;SDS011;4415;42.152;24.744;2023-11-19T06:54:15;320.53;;;148.17;;
8757;SDS011;4415;42.152;24.744;2023-11-19T06:56:41;318.67;;;145.60;;
8757;SDS011;4415;42.152;24.744;2023-11-19T06:59:06;322.60;;;159.87;;
8757;SDS011;4415;42.152;24.744;2023-11-19T07:01:35;304.07;;;161.50;;
8757;SDS011;4415;42.152;24.744;2023-11-19T07:04:02;253.40;;;153.57;;
8757;SDS011;4415;42.152;24.744;2023-11-19T07:06:34;272.33;;;166.83;;
8757;SDS011;4415;42.152;24.744;2023-11-19T07:09:00;210.43;;;170.90;;
8757;SDS011;4415;42.152;24.744;2023-11-19T07:11:34;193.57;;;172.47;;
8757;SDS011;4415;42.152;24.744;2023-11-19T07:14:10;263.33;;;206.97;;
8757;SDS011;4415;42.152;24.744;2023-11-19T07:16:36;288.80;;;211.80;;
8757;SDS011;4415;42.152;24.744;2023-11-19T07:19:02;253.30;;;218.47;;
8757;SDS011;4415;42.152;24.744;2023-11-19T07:21:28;253.53;;;225.33;;
8757;SDS011;4415;42.152;24.744;2023-11-19T07:23:57;256.63;;;207.80;;
8757;SDS011;4415;42.152;24.744;2023-11-19T07:26:22;166.57;;;151.53;;
8757;SDS011;4415;42.152;24.744;2023-11-19T07:28:51;194.40;;;175.47;;
8757;SDS011;4415;42.152;24.744;2023-11-19T07:31:17;219.47;;;190.87;;
8757;SDS011;4415;42.152;24.744;2023-11-19T07:33:44;219.00;;;196.07;;
8757;SDS011;4415;42.152;24.744;2023-11-19T07:36:10;248.37;;;216.40;;
8757;SDS011;4415;42.152;24.744;2023-11-19T07:38:36;247.77;;;222.57;;
8757;SDS011;4415;42.152;24.744;2023-11-19T07:41:02;246.53;;;220.53;;
8757;SDS011;4415;42.152;24.744;2023-11-19T07:43:27;230.33;;;205.73;;
8757;SDS011;4415;42.152;24.744;2023-11-19T07:45:53;247.17;;;218.93;;
8757;SDS011;4415;42.152;24.744;2023-11-19T07:48:18;244.07;;;217.80;;
8757;SDS011;4415;42.152;24.744;2023-11-19T07:50:48;239.67;;;211.27;;
8757;SDS011;4415;42.152;24.744;2023-11-19T07:53:17;280.00;;;208.90;;
8757;SDS011;4415;42.152;24.744;2023-11-19T07:55:42;262.57;;;199.90;;
8757;SDS011;4415;42.152;24.744;2023-11-19T07:58:09;353.50;;;183.23;;
8757;SDS011;4415;42.152;24.744;2023-11-19T08:00:35;267.97;;;187.30;;
8757;SDS011;4415;42.152;24.744;2023-11-19T08:03:01;188.53;;;168.03;;
8757;SDS011;4415;42.152;24.744;2023-11-19T08:05:26;219.73;;;152.40;;
8757;SDS011;4415;42.152;24.744;2023-11-19T08:07:51;195.60;;;145.00;;
8757;SDS011;4415;42.152;24.744;2023-11-19T08:10:18;163.67;;;126.90;;
8757;SDS011;4415;42.152;24.744;2023-11-19T08:12:44;180.57;;;134.93;;
8757;SDS011;4415;42.152;24.744;2023-11-19T08:15:09;178.47;;;131.13;;
8757;SDS011;4415;42.152;24.744;2023-11-19T08:17:35;186.60;;;136.50;;
8757;SDS011;4415;42.152;24.744;2023-11-19T08:20:01;156.27;;;128.87;;
8757;SDS011;4415;42.152;24.744;2023-11-19T08:22:26;160.33;;;123.03;;
8757;SDS011;4415;42.152;24.744;2023-11-19T08:24:52;177.03;;;129.73;;
8757;SDS011;4415;42.152;24.744;2023-11-19T08:27:17;164.53;;;126.50;;
8757;SDS011;4415;42.152;24.744;2023-11-19T08:29:43;138.63;;;121.03;;
8757;SDS011;4415;42.152;24.744;2023-11-19T08:32:08;173.13;;;132.97;;
8757;SDS011;4415;42.152;24.744;2023-11-19T08:34:33;139.00;;;117.27;;
8757;SDS011;4415;42.152;24.744;2023-11-19T08:36:59;149.83;;;121.97;;
8757;SDS011;4415;42.152;24.744;2023-11-19T08:39:25;131.57;;;117.33;;
8757;SDS011;4415;42.152;24.744;2023-11-19T08:41:50;154.87;;;124.17;;
8757;SDS011;4415;42.152;24.744;2023-11-19T08:44:16;120.20;;;107.87;;
8757;SDS011;4415;42.152;24.744;2023-11-19T08:46:48;127.17;;;113.57;;
8757;SDS011;4415;42.152;24.744;2023-11-19T08:49:14;156.63;;;125.27;;
8757;SDS011;4415;42.152;24.744;2023-11-19T08:51:39;138.67;;;118.80;;
8757;SDS011;4415;42.152;24.744;2023-11-19T08:54:05;155.50;;;125.90;;
8757;SDS011;4415;42.152;24.744;2023-11-19T08:56:30;160.50;;;125.83;;
8757;SDS011;4415;42.152;24.744;2023-11-19T08:58:58;127.27;;;114.13;;
8757;SDS011;4415;42.152;24.744;2023-11-19T09:01:23;150.23;;;125.10;;
8757;SDS011;4415;42.152;24.744;2023-11-19T09:03:49;131.17;;;117.03;;
8757;SDS011;4415;42.152;24.744;2023-11-19T09:06:15;141.23;;;124.10;;
8757;SDS011;4415;42.152;24.744;2023-11-19T09:08:41;169.87;;;133.90;;
8757;SDS011;4415;42.152;24.744;2023-11-19T09:11:07;151.50;;;128.10;;
8757;SDS011;4415;42.152;24.744;2023-11-19T09:13:33;111.23;;;99.70;;
8757;SDS011;4415;42.152;24.744;2023-11-19T09:15:59;118.80;;;106.57;;
8757;SDS011;4415;42.152;24.744;2023-11-19T09:18:28;110.77;;;100.03;;
8757;SDS011;4415;42.152;24.744;2023-11-19T09:20:54;119.97;;;106.70;;
8757;SDS011;4415;42.152;24.744;2023-11-19T09:23:19;121.40;;;108.10;;
8757;SDS011;4415;42.152;24.744;2023-11-19T09:25:45;132.07;;;110.20;;
8757;SDS011;4415;42.152;24.744;2023-11-19T09:28:10;128.00;;;115.03;;
8757;SDS011;4415;42.152;24.744;2023-11-19T09:30:36;137.30;;;122.47;;
8757;SDS011;4415;42.152;24.744;2023-11-19T09:33:01;122.33;;;109.37;;
8757;SDS011;4415;42.152;24.744;2023-11-19T09:35:27;141.10;;;122.00;;
8757;SDS011;4415;42.152;24.744;2023-11-19T09:37:52;130.00;;;115.80;;
8757;SDS011;4415;42.152;24.744;2023-11-19T09:40:18;117.33;;;105.93;;
8757;SDS011;4415;42.152;24.744;2023-11-19T09:42:44;127.70;;;114.03;;
8757;SDS011;4415;42.152;24.744;2023-11-19T09:45:16;125.27;;;112.27;;
8757;SDS011;4415;42.152;24.744;2023-11-19T09:47:43;121.20;;;107.93;;
8757;SDS011;4415;42.152;24.744;2023-11-19T09:50:14;135.73;;;118.87;;
8757;SDS011;4415;42.152;24.744;2023-11-19T09:52:42;138.80;;;123.60;;
8757;SDS011;4415;42.152;24.744;2023-11-19T09:55:08;145.23;;;127.63;;
8757;SDS011;4415;42.152;24.744;2023-11-19T09:57:33;142.17;;;127.00;;
8757;SDS011;4415;42.152;24.744;2023-11-19T10:00:02;163.63;;;128.63;;
8757;SDS011;4415;42.152;24.744;2023-11-19T10:02:30;198.97;;;142.57;;
8757;SDS011;4415;42.152;24.744;2023-11-19T10:04:58;142.50;;;126.97;;
8757;SDS011;4415;42.152;24.744;2023-11-19T10:07:26;145.03;;;129.13;;
8757;SDS011;4415;42.152;24.744;2023-11-19T10:09:52;137.33;;;120.00;;
8757;SDS011;4415;42.152;24.744;2023-11-19T10:12:18;152.50;;;127.60;;
8757;SDS011;4415;42.152;24.744;2023-11-19T10:14:43;123.27;;;110.47;;
8757;SDS011;4415;42.152;24.744;2023-11-19T10:17:10;119.63;;;107.77;;
8757;SDS011;4415;42.152;24.744;2023-11-19T10:19:35;122.87;;;110.50;;
8757;SDS011;4415;42.152;24.744;2023-11-19T10:22:02;139.37;;;120.77;;
8757;SDS011;4415;42.152;24.744;2023-11-19T10:24:32;126.77;;;113.33;;
8757;SDS011;4415;42.152;24.744;2023-11-19T10:26:59;125.77;;;112.57;;
8757;SDS011;4415;42.152;24.744;2023-11-19T10:29:30;123.60;;;110.07;;
8757;SDS011;4415;42.152;24.744;2023-11-19T10:31:56;155.93;;;124.77;;
8757;SDS011;4415;42.152;24.744;2023-11-19T10:34:25;120.90;;;108.43;;
8757;SDS011;4415;42.152;24.744;2023-11-19T10:36:52;114.13;;;101.13;;
8757;SDS011;4415;42.152;24.744;2023-11-19T10:39:18;133.63;;;111.00;;
8757;SDS011;4415;42.152;24.744;2023-11-19T10:41:45;125.87;;;109.33;;
8757;SDS011;4415;42.152;24.744;2023-11-19T10:44:11;136.10;;;118.87;;
8757;SDS011;4415;42.152;24.744;2023-11-19T10:46:37;123.33;;;110.50;;
8757;SDS011;4415;42.152;24.744;2023-11-19T10:49:04;127.93;;;113.40;;
8757;SDS011;4415;42.152;24.744;2023-11-19T10:51:31;160.33;;;124.83;;
8757;SDS011;4415;42.152;24.744;2023-11-19T10:53:59;125.53;;;102.40;;
8757;SDS011;4415;42.152;24.744;2023-11-19T10:56:29;112.47;;;96.93;;
8757;SDS011;4415;42.152;24.744;2023-11-19T10:58:56;121.73;;;104.60;;
8757;SDS011;4415;42.152;24.744;2023-11-19T11:01:24;120.97;;;107.73;;
8757;SDS011;4415;42.152;24.744;2023-11-19T11:03:58;134.10;;;116.13;;
8757;SDS011;4415;42.152;24.744;2023-11-19T11:06:26;123.80;;;94.23;;
8757;SDS011;4415;42.152;24.744;2023-11-19T11:08:52;134.47;;;101.07;;
8757;SDS011;4415;42.152;24.744;2023-11-19T11:11:19;137.57;;;109.53;;
8757;SDS011;4415;42.152;24.744;2023-11-19T11:13:48;157.70;;;121.87;;
8757;SDS011;4415;42.152;24.744;2023-11-19T11:16:15;139.77;;;117.37;;
8757;SDS011;4415;42.152;24.744;2023-11-19T11:18:44;147.50;;;106.93;;
8757;SDS011;4415;42.152;24.744;2023-11-19T11:21:15;148.10;;;106.03;;
8757;SDS011;4415;42.152;24.744;2023-11-19T11:29:33;130.70;;;108.27;;
8757;SDS011;4415;42.152;24.744;2023-11-19T11:32:15;138.57;;;104.57;;
8757;SDS011;4415;42.152;24.744;2023-11-19T11:35:08;130.60;;;104.80;;
8757;SDS011;4415;42.152;24.744;2023-11-19T11:37:55;190.77;;;123.17;;
8757;SDS011;4415;42.152;24.744;2023-11-19T11:40:28;123.43;;;107.40;;
8757;SDS011;4415;42.152;24.744;2023-11-19T11:42:53;160.77;;;121.27;;
8757;SDS011;4415;42.152;24.744;2023-11-19T11:45:19;161.97;;;114.27;;
8757;SDS011;4415;42.152;24.744;2023-11-19T11:48:14;124.83;;;99.27;;
8757;SDS011;4415;42.152;24.744;2023-11-19T11:50:56;118.23;;;101.87;;
8757;SDS011;4415;42.152;24.744;2023-11-19T11:53:23;102.80;;;85.90;;
8757;SDS011;4415;42.152;24.744;2023-11-19T11:58:20;144.37;;;101.80;;
8757;SDS011;4415;42.152;24.744;2023-11-19T12:00:47;122.63;;;100.40;;
8757;SDS011;4415;42.152;24.744;2023-11-19T12:03:13;180.97;;;124.73;;
8757;SDS011;4415;42.152;24.744;2023-11-19T12:05:38;135.33;;;106.87;;
8757;SDS011;4415;42.152;24.744;2023-11-19T12:08:06;148.60;;;110.53;;
8757;SDS011;4415;42.152;24.744;2023-11-19T12:13:09;125.83;;;94.47;;
8757;SDS011;4415;42.152;24.744;2023-11-19T12:18:35;117.40;;;101.10;;
8757;SDS011;4415;42.152;24.744;2023-11-19T12:21:03;130.80;;;92.97;;
8757;SDS011;4415;42.152;24.744;2023-11-19T12:23:30;88.83;;;78.80;;
8757;SDS011;4415;42.152;24.744;2023-11-19T12:25:57;108.33;;;88.13;;
8757;SDS011;4415;42.152;24.744;2023-11-19T12:28:23;104.20;;;83.43;;
8757;SDS011;4415;42.152;24.744;2023-11-19T12:30:52;140.03;;;101.77;;
8757;SDS011;4415;42.152;24.744;2023-11-19T12:33:18;137.77;;;97.47;;
8757;SDS011;4415;42.152;24.744;2023-11-19T12:35:47;130.73;;;99.07;;
8757;SDS011;4415;42.152;24.744;2023-11-19T12:38:23;128.13;;;95.27;;
8757;SDS011;4415;42.152;24.744;2023-11-19T12:41:02;131.10;;;104.20;;
8757;SDS011;4415;42.152;24.744;2023-11-19T12:43:38;132.47;;;104.57;;
8757;SDS011;4415;42.152;24.744;2023-11-19T12:46:25;105.73;;;84.13;;
8757;SDS011;4415;42.152;24.744;2023-11-19T12:48:51;87.97;;;73.77;;
8757;SDS011;4415;42.152;24.744;2023-11-19T12:51:18;123.77;;;101.67;;
8757;SDS011;4415;42.152;24.744;2023-11-19T12:53:48;105.20;;;77.20;;
8757;SDS011;4415;42.152;24.744;2023-11-19T12:56:20;131.37;;;89.63;;
8757;SDS011;4415;42.152;24.744;2023-11-19T12:58:46;131.67;;;84.27;;
8757;SDS011;4415;42.152;24.744;2023-11-19T13:01:15;129.43;;;85.40;;
8757;SDS011;4415;42.152;24.744;2023-11-19T13:03:44;105.20;;;77.10;;
8757;SDS011;4415;42.152;24.744;2023-11-19T13:06:11;144.60;;;91.40;;
8757;SDS011;4415;42.152;24.744;2023-11-19T13:08:44;94.47;;;80.53;;
8757;SDS011;4415;42.152;24.744;2023-11-19T13:11:11;127.10;;;83.07;;
8757;SDS011;4415;42.152;24.744;2023-11-19T13:16:23;162.40;;;93.80;;
8757;SDS011;4415;42.152;24.744;2023-11-19T13:18:49;82.93;;;70.43;;
8757;SDS011;4415;42.152;24.744;2023-11-19T13:21:15;157.30;;;102.57;;
8757;SDS011;4415;42.152;24.744;2023-11-19T13:23:40;77.87;;;68.13;;
8757;SDS011;4415;42.152;24.744;2023-11-19T13:26:06;114.30;;;81.07;;
8757;SDS011;4415;42.152;24.744;2023-11-19T13:28:32;136.53;;;83.13;;
8757;SDS011;4415;42.152;24.744;2023-11-19T13:30:57;125.33;;;84.20;;
8757;SDS011;4415;42.152;24.744;2023-11-19T13:33:23;96.10;;;71.53;;
8757;SDS011;4415;42.152;24.744;2023-11-19T13:35:48;106.20;;;74.43;;
8757;SDS011;4415;42.152;24.744;2023-11-19T13:38:14;110.03;;;75.70;;
8757;SDS011;4415;42.152;24.744;2023-11-19T13:40:39;187.87;;;96.23;;
8757;SDS011;4415;42.152;24.744;2023-11-19T13:43:05;128.37;;;95.77;;
8757;SDS011;4415;42.152;24.744;2023-11-19T13:45:30;134.60;;;85.67;;
8757;SDS011;4415;42.152;24.744;2023-11-19T13:47:55;115.73;;;78.93;;
8757;SDS011;4415;42.152;24.744;2023-11-19T13:50:21;179.60;;;87.60;;
8757;SDS011;4415;42.152;24.744;2023-11-19T13:52:47;105.53;;;74.30;;
8757;SDS011;4415;42.152;24.744;2023-11-19T13:55:13;175.63;;;93.17;;
8757;SDS011;4415;42.152;24.744;2023-11-19T13:57:39;222.00;;;114.23;;
8757;SDS011;4415;42.152;24.744;2023-11-19T14:00:07;62.13;;;55.73;;
8757;SDS011;4415;42.152;24.744;2023-11-19T14:02:48;58.80;;;53.57;;
8757;SDS011;4415;42.152;24.744;2023-11-19T14:05:14;46.77;;;42.90;;
8757;SDS011;4415;42.152;24.744;2023-11-19T14:07:42;51.83;;;47.87;;
8757;SDS011;4415;42.152;24.744;2023-11-19T14:10:08;56.10;;;51.53;;
8757;SDS011;4415;42.152;24.744;2023-11-19T14:12:36;57.33;;;52.13;;
8757;SDS011;4415;42.152;24.744;2023-11-19T14:15:08;57.70;;;52.93;;
8757;SDS011;4415;42.152;24.744;2023-11-19T14:17:35;57.73;;;53.03;;
8757;SDS011;4415;42.152;24.744;2023-11-19T14:20:01;57.90;;;52.00;;
8757;SDS011;4415;42.152;24.744;2023-11-19T14:22:31;55.90;;;50.23;;
8757;SDS011;4415;42.152;24.744;2023-11-19T14:24:56;59.80;;;53.63;;
8757;SDS011;4415;42.152;24.744;2023-11-19T14:27:22;62.80;;;55.30;;
8757;SDS011;4415;42.152;24.744;2023-11-19T14:29:47;54.83;;;49.40;;
8757;SDS011;4415;42.152;24.744;2023-11-19T14:32:13;47.27;;;43.37;;
8757;SDS011;4415;42.152;24.744;2023-11-19T14:34:38;52.73;;;48.43;;
8757;SDS011;4415;42.152;24.744;2023-11-19T14:37:04;46.40;;;42.30;;
8757;SDS011;4415;42.152;24.744;2023-11-19T14:39:29;38.40;;;35.80;;
8757;SDS011;4415;42.152;24.744;2023-11-19T14:41:56;37.13;;;34.67;;
8757;SDS011;4415;42.152;24.744;2023-11-19T14:44:25;34.80;;;32.57;;